createdAt,value
2023-05-05T00:00:25.745Z,15.83
2023-05-05T00:02:55.712Z,15.71
2023-05-05T00:05:25.363Z,15.74
2023-05-05T00:07:54.214Z,15.82
2023-05-05T00:10:22.866Z,15.77
2023-05-05T00:12:51.277Z,15.77
2023-05-05T00:15:19.871Z,15.79
2023-05-05T00:17:48.704Z,15.74
2023-05-05T00:20:18.841Z,15.70
2023-05-05T00:22:47.241Z,15.72
2023-05-05T00:25:15.711Z,15.71
2023-05-05T00:27:44.094Z,15.69
2023-05-05T00:30:13.705Z,15.67
2023-05-05T00:32:42.040Z,15.62
2023-05-05T00:35:11.070Z,15.65
2023-05-05T00:37:40.799Z,15.54
2023-05-05T00:40:10.960Z,15.48
2023-05-05T00:42:43.223Z,15.48
2023-05-05T00:45:12.941Z,15.45
2023-05-05T00:47:43.608Z,15.42
2023-05-05T00:50:22.721Z,15.38
2023-05-05T00:52:55.033Z,15.30
2023-05-05T00:55:23.599Z,15.45
2023-05-05T00:57:52.233Z,15.42
2023-05-05T01:00:20.665Z,15.47
2023-05-05T01:02:49.106Z,15.41
2023-05-05T01:05:18.299Z,15.38
2023-05-05T01:07:59.972Z,15.47
2023-05-05T01:10:38.063Z,15.48
2023-05-05T01:13:21.262Z,15.37
2023-05-05T01:15:58.636Z,15.33
2023-05-05T01:18:33.928Z,15.32
2023-05-05T01:21:13.860Z,15.29
2023-05-05T01:24:14.836Z,15.31
2023-05-05T01:27:00.261Z,15.18
2023-05-05T01:29:42.252Z,15.26
2023-05-05T01:32:14.902Z,15.19
2023-05-05T01:34:55.802Z,15.13
2023-05-05T01:37:30.484Z,15.00
2023-05-05T01:40:05.639Z,15.03
2023-05-05T01:42:35.328Z,14.93
2023-05-05T01:45:08.199Z,14.88
2023-05-05T01:47:40.584Z,14.63
2023-05-05T01:50:10.662Z,14.73
2023-05-05T01:52:40.048Z,14.67
2023-05-05T01:55:11.210Z,14.52
2023-05-05T01:57:42.439Z,14.56
2023-05-05T02:00:12.305Z,14.48
2023-05-05T02:02:49.143Z,14.47
2023-05-05T02:05:21.942Z,14.31
2023-05-05T02:07:52.818Z,14.50
2023-05-05T02:10:21.561Z,14.38
2023-05-05T02:12:52.152Z,14.39
2023-05-05T02:15:22.469Z,14.37
2023-05-05T02:17:53.977Z,14.41
2023-05-05T02:20:25.390Z,14.53
2023-05-05T02:22:54.756Z,14.55
2023-05-05T02:25:27.597Z,14.48
2023-05-05T02:28:00.115Z,14.53
2023-05-05T02:30:30.915Z,14.55
2023-05-05T02:33:08.275Z,14.51
2023-05-05T02:35:40.427Z,14.34
2023-05-05T02:38:17.436Z,14.34
2023-05-05T02:40:50.589Z,14.35
2023-05-05T02:43:22.917Z,14.29
2023-05-05T02:45:51.560Z,14.31
2023-05-05T02:48:22.275Z,14.37
2023-05-05T02:50:52.477Z,14.34
2023-05-05T02:53:30.497Z,14.28
2023-05-05T02:56:12.304Z,14.28
2023-05-05T02:58:54.040Z,14.16
2023-05-05T03:01:40.455Z,14.15
2023-05-05T03:04:17.104Z,14.36
2023-05-05T03:06:55.577Z,14.21
2023-05-05T03:09:34.659Z,14.45
2023-05-05T03:12:06.594Z,14.30
2023-05-05T03:14:46.516Z,14.17
2023-05-05T03:17:19.626Z,14.20
2023-05-05T03:19:50.277Z,14.52
2023-05-05T03:22:18.865Z,14.45
2023-05-05T03:24:52.044Z,14.44
2023-05-05T03:27:24.327Z,14.35
2023-05-05T03:29:53.150Z,14.35
2023-05-05T03:32:23.783Z,14.29
2023-05-05T03:34:56.826Z,14.13
2023-05-05T03:37:30.941Z,14.08
2023-05-05T03:39:59.596Z,14.02
2023-05-05T03:42:27.946Z,14.11
2023-05-05T03:44:57.153Z,14.05
2023-05-05T03:47:25.861Z,13.89
2023-05-05T03:49:56.980Z,13.90
2023-05-05T03:52:25.610Z,13.94
2023-05-05T03:54:54.482Z,13.95
2023-05-05T03:57:22.834Z,13.80
2023-05-05T03:59:51.303Z,13.76
2023-05-05T04:02:20.032Z,13.62
2023-05-05T04:04:49.070Z,13.64
2023-05-05T04:07:18.890Z,13.52
2023-05-05T04:09:47.332Z,13.53
2023-05-05T04:12:15.800Z,13.51
2023-05-05T04:14:45.143Z,13.49
2023-05-05T04:17:13.587Z,13.48
2023-05-05T04:19:42.166Z,13.51
2023-05-05T04:22:11.434Z,13.38
2023-05-05T04:24:41.220Z,13.34
2023-05-05T04:27:11.318Z,13.20
2023-05-05T04:29:39.774Z,13.29
2023-05-05T04:32:09.097Z,13.08
2023-05-05T04:34:37.524Z,13.14
2023-05-05T04:37:06.270Z,13.21
2023-05-05T04:39:35.543Z,13.18
2023-05-05T04:42:06.763Z,13.19
2023-05-05T04:44:35.299Z,13.27
2023-05-05T04:47:04.656Z,13.33
2023-05-05T04:49:33.607Z,13.60
2023-05-05T04:52:01.997Z,13.68
2023-05-05T04:54:30.415Z,13.90
2023-05-05T04:56:59.369Z,14.17
2023-05-05T04:59:29.099Z,14.40
2023-05-05T05:01:58.164Z,14.57
2023-05-05T05:04:27.418Z,14.56
2023-05-05T05:06:58.347Z,14.77
2023-05-05T05:09:27.585Z,14.79
2023-05-05T05:12:00.401Z,14.94
2023-05-05T05:14:30.345Z,14.90
2023-05-05T05:16:58.827Z,14.67
2023-05-05T05:19:27.215Z,14.64
2023-05-05T05:21:55.759Z,14.87
2023-05-05T05:24:24.865Z,15.01
2023-05-05T05:26:54.616Z,15.16
2023-05-05T05:29:24.893Z,15.31
2023-05-05T05:31:54.744Z,15.53
2023-05-05T05:34:23.911Z,15.68
2023-05-05T05:36:52.345Z,16.01
2023-05-05T05:39:21.877Z,16.09
2023-05-05T05:41:50.290Z,16.11
2023-05-05T05:44:19.555Z,16.18
2023-05-05T05:46:48.358Z,16.38
2023-05-05T05:49:19.128Z,16.69
2023-05-05T05:51:47.631Z,16.91
2023-05-05T05:54:16.334Z,17.00
2023-05-05T05:56:45.033Z,17.00
2023-05-05T05:59:13.469Z,17.24
2023-05-05T06:01:42.785Z,17.33
2023-05-05T06:04:11.343Z,17.31
2023-05-05T06:06:41.486Z,17.51
2023-05-05T06:09:09.882Z,17.75
2023-05-05T06:11:38.568Z,17.95
2023-05-05T06:14:07.297Z,18.30
2023-05-05T06:16:35.988Z,18.30
2023-05-05T06:19:10.644Z,18.56
2023-05-05T06:21:40.919Z,18.97
2023-05-05T06:24:09.481Z,19.28
2023-05-05T06:26:37.964Z,19.26
2023-05-05T06:29:06.665Z,19.31
2023-05-05T06:31:35.106Z,19.74
2023-05-05T06:34:03.503Z,20.06
2023-05-05T06:36:32.377Z,20.15
2023-05-05T06:39:02.208Z,20.52
2023-05-05T06:41:30.767Z,20.41
2023-05-05T06:43:59.204Z,20.51
2023-05-05T06:46:28.072Z,20.13
2023-05-05T06:48:56.519Z,19.91
2023-05-05T06:51:26.560Z,19.81
2023-05-05T06:53:54.933Z,19.72
2023-05-05T06:56:24.736Z,19.69
2023-05-05T06:58:53.217Z,19.58
2023-05-05T07:01:21.576Z,19.68
2023-05-05T07:03:50.118Z,19.29
2023-05-05T07:06:18.609Z,19.69
2023-05-05T07:08:47.202Z,20.11
2023-05-05T07:11:15.619Z,20.43
2023-05-05T07:13:45.377Z,20.54
2023-05-05T07:16:13.837Z,20.82
2023-05-05T07:18:42.184Z,21.36
2023-05-05T07:21:10.736Z,21.47
2023-05-05T07:23:40.645Z,21.88
2023-05-05T07:26:09.185Z,22.01
2023-05-05T07:28:37.511Z,22.35
2023-05-05T07:31:07.253Z,22.36
2023-05-05T07:33:36.113Z,22.35
2023-05-05T07:36:05.208Z,22.35
2023-05-05T07:38:33.750Z,22.47
2023-05-05T07:41:02.087Z,22.42
2023-05-05T07:43:30.680Z,22.26
2023-05-05T07:45:59.241Z,22.54
2023-05-05T07:48:30.139Z,22.80
2023-05-05T07:50:58.629Z,22.35
2023-05-05T07:53:26.975Z,22.63
2023-05-05T07:55:55.450Z,23.16
2023-05-05T07:58:23.987Z,23.24
2023-05-05T08:00:52.471Z,23.13
2023-05-05T08:03:24.290Z,23.13
2023-05-05T08:05:56.491Z,23.35
2023-05-05T08:08:25.259Z,23.37
2023-05-05T08:10:54.539Z,23.53
2023-05-05T08:13:22.904Z,23.41
2023-05-05T08:15:51.305Z,23.41
2023-05-05T08:18:19.783Z,23.29
2023-05-05T08:20:48.125Z,23.16
2023-05-05T08:23:18.050Z,22.58
2023-05-05T08:25:46.501Z,22.55
2023-05-05T08:28:14.889Z,22.60
2023-05-05T08:30:44.102Z,22.40
2023-05-05T08:33:12.480Z,22.35
2023-05-05T08:35:40.934Z,22.28
2023-05-05T08:38:09.432Z,22.14
2023-05-05T08:40:41.053Z,22.51
2023-05-05T08:43:09.585Z,22.63
2023-05-05T08:45:41.799Z,22.46
2023-05-05T08:48:10.845Z,22.01
2023-05-05T08:50:41.214Z,22.05
2023-05-05T08:53:17.650Z,21.78
2023-05-05T08:55:53.310Z,21.55
2023-05-05T08:58:22.416Z,21.47
2023-05-05T09:00:51.778Z,21.26
2023-05-05T09:03:20.673Z,21.41
2023-05-05T09:05:49.870Z,21.35
2023-05-05T09:08:19.140Z,21.41
2023-05-05T09:10:49.888Z,21.37
2023-05-05T09:13:18.306Z,21.67
2023-05-05T09:15:46.746Z,21.95
2023-05-05T09:18:15.146Z,21.91
2023-05-05T09:20:43.599Z,22.09
2023-05-05T09:23:14.276Z,22.41
2023-05-05T09:25:45.350Z,22.72
2023-05-05T09:28:16.451Z,22.89
2023-05-05T09:30:47.483Z,23.18
2023-05-05T09:33:16.028Z,23.01
2023-05-05T09:35:52.502Z,23.19
2023-05-05T09:38:21.641Z,23.18
2023-05-05T09:40:52.672Z,23.64
2023-05-05T09:43:24.581Z,24.09
2023-05-05T09:45:53.025Z,24.50
2023-05-05T09:48:26.763Z,25.02
2023-05-05T09:50:56.006Z,25.05
2023-05-05T09:53:25.582Z,25.05
2023-05-05T09:55:55.720Z,25.24
2023-05-05T09:58:27.132Z,25.68
2023-05-05T10:00:57.304Z,25.65
2023-05-05T10:03:26.471Z,25.97
2023-05-05T10:05:56.473Z,25.92
2023-05-05T10:08:27.387Z,25.75
2023-05-05T10:10:59.622Z,25.78
2023-05-05T10:13:30.010Z,25.10
2023-05-05T10:15:59.896Z,25.47
2023-05-05T10:18:30.528Z,25.03
2023-05-05T10:21:00.669Z,25.23
2023-05-05T10:23:39.486Z,25.59
2023-05-05T10:26:09.580Z,25.25
2023-05-05T10:28:46.857Z,25.59
2023-05-05T10:31:26.549Z,25.44
2023-05-05T10:34:01.776Z,25.29
2023-05-05T10:36:31.827Z,25.27
2023-05-05T10:39:02.139Z,24.79
2023-05-05T10:41:31.971Z,24.32
2023-05-05T10:44:04.420Z,24.36
2023-05-05T10:46:33.526Z,24.21
2023-05-05T10:49:13.463Z,24.18
2023-05-05T10:51:51.177Z,23.55
2023-05-05T10:54:26.178Z,23.71
2023-05-05T10:56:55.505Z,23.58
2023-05-05T10:59:44.669Z,23.89
2023-05-05T11:02:27.951Z,23.76
2023-05-05T11:05:14.317Z,23.79
2023-05-05T11:07:43.661Z,24.00
2023-05-05T11:10:14.420Z,23.89
2023-05-05T11:13:20.662Z,23.82
2023-05-05T11:15:52.566Z,23.79
2023-05-05T11:18:33.983Z,23.71
2023-05-05T11:21:17.551Z,23.80
2023-05-05T11:23:51.204Z,23.38
2023-05-05T11:26:49.900Z,23.83
2023-05-05T11:29:18.501Z,23.66
2023-05-05T11:32:15.770Z,23.52
2023-05-05T11:34:50.969Z,24.07
2023-05-05T11:37:19.485Z,23.66
2023-05-05T11:40:05.398Z,23.94
2023-05-05T11:42:33.956Z,24.27
2023-05-05T11:45:02.380Z,24.33
2023-05-05T11:47:34.944Z,24.08
2023-05-05T11:50:23.348Z,24.24
2023-05-05T11:52:51.939Z,24.17
2023-05-05T11:55:24.049Z,24.06
2023-05-05T11:57:52.684Z,24.09
2023-05-05T12:00:21.741Z,24.17
2023-05-05T12:02:59.067Z,24.18
2023-05-05T12:05:27.759Z,24.00
2023-05-05T12:07:59.818Z,24.15
2023-05-05T12:10:28.993Z,24.01
2023-05-05T12:12:57.586Z,24.36
2023-05-05T12:15:33.831Z,24.51
2023-05-05T12:18:05.550Z,24.27
2023-05-05T12:20:36.623Z,24.12
2023-05-05T12:23:05.773Z,23.84
2023-05-05T12:25:39.268Z,23.73
2023-05-05T12:28:09.196Z,23.61
2023-05-05T12:30:37.897Z,23.63
2023-05-05T12:33:09.612Z,23.65
2023-05-05T12:35:38.232Z,23.89
2023-05-05T12:38:07.230Z,23.88
2023-05-05T12:40:53.878Z,23.85
2023-05-05T12:43:31.116Z,24.04
2023-05-05T12:46:04.887Z,23.57
2023-05-05T12:48:35.780Z,23.46
2023-05-05T12:51:19.873Z,23.82
2023-05-05T12:53:49.743Z,23.73
2023-05-05T12:56:38.602Z,23.50
2023-05-05T12:59:08.989Z,23.32
2023-05-05T13:01:39.000Z,23.48
2023-05-05T13:04:14.160Z,23.36
2023-05-05T13:06:44.111Z,23.48
2023-05-05T13:09:24.640Z,23.35
2023-05-05T13:11:53.714Z,23.36
2023-05-05T13:14:22.358Z,23.40
2023-05-05T13:16:50.873Z,23.42
2023-05-05T13:19:20.686Z,23.34
2023-05-05T13:21:49.041Z,23.53
2023-05-05T13:26:48.798Z,23.76
2023-05-05T13:29:17.475Z,23.56
2023-05-05T13:31:46.590Z,23.77
2023-05-05T13:34:14.962Z,23.56
2023-05-05T13:36:44.750Z,23.45
2023-05-05T13:39:13.524Z,23.48
2023-05-05T13:41:41.888Z,23.50
2023-05-05T13:44:10.301Z,23.58
2023-05-05T13:46:38.661Z,23.16
2023-05-05T13:49:07.092Z,23.58
2023-05-05T13:51:35.783Z,23.56
2023-05-05T13:54:06.647Z,23.42
2023-05-05T13:56:35.569Z,23.68
2023-05-05T13:59:04.077Z,23.67
2023-05-05T14:01:32.611Z,23.84
2023-05-05T14:04:04.460Z,23.92
2023-05-05T14:06:34.064Z,23.86
2023-05-05T14:09:05.670Z,23.85
2023-05-05T14:11:35.537Z,23.62
2023-05-05T14:14:03.907Z,23.52
2023-05-05T14:16:32.353Z,23.70
2023-05-05T14:19:00.760Z,23.97
2023-05-05T14:21:29.111Z,23.78
2023-05-05T14:23:57.517Z,23.96
2023-05-05T14:26:26.400Z,23.92
2023-05-05T14:28:56.182Z,23.91
2023-05-05T14:31:24.667Z,23.90
2023-05-05T14:33:53.460Z,23.85
2023-05-05T14:36:21.803Z,23.70
2023-05-05T14:38:50.336Z,23.67
2023-05-05T14:41:18.688Z,23.57
2023-05-05T14:43:47.057Z,23.61
2023-05-05T14:46:16.902Z,23.53
2023-05-05T14:48:46.358Z,23.46
2023-05-05T14:51:16.352Z,23.25
2023-05-05T14:53:44.753Z,23.33
2023-05-05T14:56:13.233Z,23.39
2023-05-05T14:58:41.726Z,23.34
2023-05-05T15:01:10.237Z,23.34
2023-05-05T15:03:40.549Z,23.25
2023-05-05T15:06:09.486Z,23.19
2023-05-05T15:08:39.040Z,23.20
2023-05-05T15:11:07.717Z,23.19
2023-05-05T15:13:38.660Z,23.10
2023-05-05T15:16:07.940Z,23.14
2023-05-05T15:18:36.539Z,23.00
2023-05-05T15:21:06.761Z,22.95
2023-05-05T15:23:35.418Z,22.94
2023-05-05T15:26:04.370Z,22.62
2023-05-05T15:28:32.871Z,22.72
2023-05-05T15:31:02.674Z,22.62
2023-05-05T15:33:31.891Z,22.21
2023-05-05T15:36:00.542Z,21.42
2023-05-05T15:38:31.436Z,21.13
2023-05-05T15:41:00.033Z,20.86
2023-05-05T15:43:28.888Z,20.77
2023-05-05T15:45:57.864Z,20.82
2023-05-05T15:48:26.466Z,20.83
2023-05-05T15:50:54.961Z,20.70
2023-05-05T15:53:23.492Z,20.79
2023-05-05T15:55:54.034Z,20.44
2023-05-05T15:58:22.595Z,20.36
2023-05-05T16:00:51.030Z,20.52
2023-05-05T16:03:19.555Z,20.47
2023-05-05T16:05:48.292Z,20.42
2023-05-05T16:08:16.826Z,20.41
2023-05-05T16:10:45.238Z,20.58
2023-05-05T16:13:15.050Z,20.51
2023-05-05T16:15:43.498Z,20.53
2023-05-05T16:18:11.914Z,20.22
2023-05-05T16:20:40.320Z,20.42
2023-05-05T16:23:08.772Z,20.28
2023-05-05T16:25:37.267Z,20.33
2023-05-05T16:28:06.209Z,20.26
2023-05-05T16:30:36.234Z,20.51
2023-05-05T16:33:04.772Z,20.41
2023-05-05T16:35:33.650Z,20.38
2023-05-05T16:38:02.023Z,20.17
2023-05-05T16:40:30.457Z,20.19
2023-05-05T16:42:58.807Z,20.23
2023-05-05T16:45:27.124Z,20.03
2023-05-05T16:47:57.076Z,20.02
2023-05-05T16:50:25.696Z,20.00
2023-05-05T16:52:54.097Z,19.99
2023-05-05T16:55:22.486Z,19.94
2023-05-05T16:57:50.852Z,19.90
2023-05-05T17:00:20.136Z,19.88
2023-05-05T17:02:48.652Z,20.13
2023-05-05T17:05:18.769Z,20.13
2023-05-05T17:07:49.374Z,20.12
2023-05-05T17:10:17.898Z,20.04
2023-05-05T17:12:46.393Z,19.92
2023-05-05T17:15:14.775Z,19.98
2023-05-05T17:17:43.411Z,20.03
2023-05-05T17:20:13.151Z,19.93
2023-05-05T17:22:42.917Z,19.93
2023-05-05T17:25:11.780Z,19.95
2023-05-05T17:27:40.213Z,19.86
2023-05-05T17:30:10.392Z,19.85
2023-05-05T17:32:38.861Z,19.84
2023-05-05T17:35:08.539Z,19.80
2023-05-05T17:37:37.178Z,19.84
2023-05-05T17:40:08.704Z,19.98
2023-05-05T17:42:38.201Z,19.95
2023-05-05T17:45:08.492Z,19.91
2023-05-05T17:47:37.424Z,19.77
2023-05-05T17:50:07.327Z,19.70
2023-05-05T17:52:35.617Z,19.76
2023-05-05T17:55:03.922Z,19.60
2023-05-05T17:57:33.636Z,19.55
2023-05-05T18:00:05.725Z,19.55
2023-05-05T18:02:41.260Z,19.59
2023-05-05T18:05:10.958Z,19.51
2023-05-05T18:07:39.716Z,19.59
2023-05-05T18:10:10.672Z,19.69
2023-05-05T18:12:43.230Z,19.63
2023-05-05T18:15:13.131Z,19.50
2023-05-05T18:17:41.578Z,19.50
2023-05-05T18:20:11.622Z,19.53
2023-05-05T18:22:40.062Z,19.54
2023-05-05T18:25:10.214Z,19.45
2023-05-05T18:27:41.669Z,19.45
2023-05-05T18:30:11.111Z,19.58
2023-05-05T18:32:42.510Z,19.63
2023-05-05T18:35:11.854Z,19.61
2023-05-05T18:37:41.524Z,19.55
2023-05-05T18:40:11.494Z,19.50
2023-05-05T18:42:41.788Z,19.44
2023-05-05T18:45:12.029Z,19.48
2023-05-05T18:47:41.435Z,19.43
2023-05-05T18:50:10.964Z,19.46
2023-05-05T18:52:39.405Z,19.45
2023-05-05T18:55:08.435Z,19.27
2023-05-05T18:57:37.175Z,19.47
2023-05-05T19:00:09.009Z,19.50
2023-05-05T19:02:37.586Z,19.48
2023-05-05T19:05:08.431Z,19.44
2023-05-05T19:07:37.026Z,19.44
2023-05-05T19:10:07.131Z,19.47
2023-05-05T19:12:36.136Z,19.41
2023-05-05T19:15:07.029Z,19.51
2023-05-05T19:17:35.736Z,19.41
2023-05-05T19:20:04.305Z,19.38
2023-05-05T19:22:32.668Z,19.25
2023-05-05T19:25:01.120Z,19.21
2023-05-05T19:27:29.472Z,19.15
2023-05-05T19:29:57.868Z,19.10
2023-05-05T19:32:27.692Z,19.12
2023-05-05T19:34:56.558Z,19.14
2023-05-05T19:37:24.909Z,19.05
2023-05-05T19:39:53.454Z,19.03
2023-05-05T19:42:21.850Z,19.03
2023-05-05T19:44:50.316Z,19.09
2023-05-05T19:47:19.071Z,19.11
2023-05-05T19:49:48.873Z,19.00
2023-05-05T19:52:17.230Z,18.96
2023-05-05T19:54:45.752Z,18.76
2023-05-05T19:57:14.224Z,18.55
2023-05-05T19:59:42.824Z,18.77
2023-05-05T20:02:12.155Z,18.71
2023-05-05T20:04:40.552Z,18.73
2023-05-05T20:07:11.099Z,18.72
2023-05-05T20:09:39.478Z,18.59
2023-05-05T20:12:08.844Z,18.68
2023-05-05T20:14:37.301Z,18.65
2023-05-05T20:17:05.714Z,18.60
2023-05-05T20:19:34.194Z,18.56
2023-05-05T20:22:02.675Z,18.56
2023-05-05T20:24:33.881Z,18.47
2023-05-05T20:27:02.455Z,18.27
2023-05-05T20:29:30.974Z,18.37
2023-05-05T20:31:59.483Z,18.36
2023-05-05T20:34:28.261Z,18.22
2023-05-05T20:36:58.073Z,18.15
2023-05-05T20:39:26.773Z,18.03
2023-05-05T20:41:56.513Z,18.05
2023-05-05T20:44:24.866Z,17.96
2023-05-05T20:46:53.278Z,17.87
2023-05-05T20:49:21.669Z,18.03
2023-05-05T20:51:50.082Z,17.92
2023-05-05T20:54:18.478Z,18.08
2023-05-05T20:56:46.851Z,18.14
2023-05-05T20:59:16.594Z,18.13
2023-05-05T21:01:45.034Z,18.11
2023-05-05T21:04:13.431Z,18.01
2023-05-05T21:06:41.822Z,17.98
2023-05-05T21:09:10.258Z,18.07
2023-05-05T21:11:38.905Z,18.12
2023-05-05T21:14:07.314Z,18.08
2023-05-05T21:16:37.138Z,17.80
2023-05-05T21:19:05.774Z,17.82
2023-05-05T21:21:34.210Z,17.86
2023-05-05T21:26:31.226Z,17.64
2023-05-05T21:28:59.511Z,17.64
2023-05-05T21:31:27.888Z,17.64
2023-05-05T21:33:57.728Z,17.69
2023-05-05T21:36:27.399Z,17.75
2023-05-05T21:38:57.636Z,17.74
2023-05-05T21:41:27.028Z,17.68
2023-05-05T21:43:55.669Z,17.58
2023-05-05T21:46:24.071Z,17.53
2023-05-05T21:48:52.497Z,17.43
2023-05-05T21:51:23.521Z,17.52
2023-05-05T21:53:52.029Z,17.40
2023-05-05T21:56:20.435Z,17.40
2023-05-05T21:58:48.867Z,17.28
2023-05-05T22:01:17.301Z,17.42
2023-05-05T22:03:47.496Z,17.48
2023-05-05T22:06:17.952Z,17.22
2023-05-05T22:08:48.660Z,17.38
2023-05-05T22:11:17.621Z,17.29
2023-05-05T22:13:47.691Z,17.26
2023-05-05T22:16:17.639Z,17.19
2023-05-05T22:18:46.833Z,17.16
2023-05-05T22:21:15.224Z,17.17
2023-05-05T22:23:43.594Z,17.22
2023-05-05T22:26:13.524Z,17.14
2023-05-05T22:28:41.942Z,17.21
2023-05-05T22:31:10.416Z,17.08
2023-05-05T22:33:38.777Z,17.00
2023-05-05T22:36:09.050Z,16.87
2023-05-05T22:38:37.454Z,16.89
2023-05-05T22:41:09.280Z,16.85
2023-05-05T22:43:39.024Z,16.82
2023-05-05T22:46:07.644Z,16.93
2023-05-05T22:48:36.027Z,16.85
2023-05-05T22:51:04.568Z,16.94
2023-05-05T22:53:32.888Z,16.67
2023-05-05T22:56:02.425Z,16.65
2023-05-05T22:58:30.753Z,16.70
2023-05-05T23:01:00.467Z,16.61
2023-05-05T23:03:29.092Z,16.54
2023-05-05T23:05:57.516Z,16.47
2023-05-05T23:08:25.926Z,16.43
2023-05-05T23:10:54.976Z,15.97
2023-05-05T23:13:23.332Z,16.42
2023-05-05T23:15:51.651Z,16.50
2023-05-05T23:18:21.381Z,16.69
2023-05-05T23:20:57.663Z,16.60
2023-05-05T23:23:26.127Z,16.54
2023-05-05T23:25:54.567Z,16.44
2023-05-05T23:28:22.942Z,16.76
2023-05-05T23:30:51.311Z,16.61
2023-05-05T23:33:21.084Z,16.62
2023-05-05T23:35:49.508Z,16.75
2023-05-05T23:38:17.790Z,16.72
2023-05-05T23:40:46.155Z,16.58
2023-05-05T23:43:14.527Z,16.55
2023-05-05T23:45:43.139Z,16.44
2023-05-05T23:48:12.949Z,16.48
2023-05-05T23:50:42.757Z,16.50
2023-05-05T23:53:11.585Z,16.49
2023-05-05T23:55:39.889Z,16.41
2023-05-05T23:58:08.384Z,16.34
